Time;durP1;ratioP1;P1;durP2;ratioP2;P2;SDS_P1;SDS_P2;PMS_P1;PMS_P2;Temp;Humidity;BMP_temperature;BMP_pressure;BME280_temperature;BME280_humidity;BME280_pressure;Samples;Min_cycle;Max_cycle;Signal;HPM_P1;HPM_P2
2021/06/15 00:04:04;;;;;;;8.10;3.00;;;;;;;;;;10534910;28;20216;-65
2021/06/15 00:09:06;;;;;;;8.57;3.17;;;;;;;;;;10531734;28;20228;-65
2021/06/15 00:14:09;;;;;;;7.30;3.27;;;;;;;;;;10531758;28;20234;-65
2021/06/15 00:19:13;;;;;;;7.40;3.03;;;;;;;;;;10533134;28;20579;-65
2021/06/15 00:24:15;;;;;;;7.43;3.20;;;;;;;;;;10533153;28;20312;-66
2021/06/15 00:29:18;;;;;;;6.97;3.03;;;;;;;;;;10530618;28;20258;-66
2021/06/15 00:34:21;;;;;;;9.10;3.20;;;;;;;;;;10529260;28;20224;-64
2021/06/15 00:39:24;;;;;;;6.20;2.80;;;;;;;;;;10531550;28;20219;-66
2021/06/15 00:44:27;;;;;;;7.40;3.20;;;;;;;;;;10522934;28;20621;-66
2021/06/15 00:49:35;;;;;;;6.63;3.00;;;;;;;;;;10523048;28;20250;-66
2021/06/15 00:54:37;;;;;;;6.80;2.83;;;;;;;;;;10529867;28;20566;-66
2021/06/15 00:59:40;;;;;;;6.33;2.80;;;;;;;;;;10519443;28;20801;-66
2021/06/15 01:04:44;;;;;;;7.70;3.20;;;;;;;;;;10532744;28;20739;-65
2021/06/15 01:09:48;;;;;;;6.47;3.10;;;;;;;;;;10521959;28;20210;-66
2021/06/15 01:15:00;;;;;;;8.83;3.00;;;;;;;;;;10531126;28;20516;-66
2021/06/15 01:20:07;;;;;;;8.37;3.33;;;;;;;;;;10528404;28;20709;-64
2021/06/15 01:25:16;;;;;;;8.87;3.33;;;;;;;;;;10529704;28;20291;-65
2021/06/15 01:30:23;;;;;;;8.00;3.33;;;;;;;;;;10524201;28;20357;-65
2021/06/15 01:35:27;;;;;;;7.97;3.30;;;;;;;;;;10523238;28;20220;-66
2021/06/15 01:40:33;;;;;;;7.53;3.27;;;;;;;;;;10528283;28;20274;-67
2021/06/15 01:45:40;;;;;;;7.70;3.37;;;;;;;;;;10538443;28;20283;-65
2021/06/15 01:50:43;;;;;;;8.90;3.93;;;;;;;;;;10524895;28;20257;-67
2021/06/15 01:55:48;;;;;;;6.83;3.10;;;;;;;;;;10529679;28;20394;-66
2021/06/15 02:00:52;;;;;;;7.83;3.43;;;;;;;;;;10522699;28;20199;-67
2021/06/15 02:05:55;;;;;;;7.13;3.27;;;;;;;;;;10543351;28;20262;-67
2021/06/15 02:10:59;;;;;;;7.60;3.50;;;;;;;;;;10525218;28;20659;-66
2021/06/15 02:16:03;;;;;;;11.47;3.90;;;;;;;;;;10521551;28;20303;-65
2021/06/15 02:21:08;;;;;;;6.60;3.37;;;;;;;;;;10528343;28;20230;-65
2021/06/15 02:26:12;;;;;;;11.10;3.90;;;;;;;;;;10523292;28;20246;-66
2021/06/15 02:31:18;;;;;;;7.57;3.60;;;;;;;;;;10526645;28;20200;-66
2021/06/15 02:36:25;;;;;;;8.80;4.27;;;;;;;;;;10527990;28;20239;-66
2021/06/15 02:41:30;;;;;;;10.13;3.97;;;;;;;;;;10520917;28;20524;-66
2021/06/15 02:46:35;;;;;;;7.67;4.07;;;;;;;;;;10529093;28;20224;-67
2021/06/15 02:51:40;;;;;;;9.97;4.17;;;;;;;;;;10527243;28;20222;-66
2021/06/15 02:56:44;;;;;;;7.87;3.90;;;;;;;;;;10513730;28;20269;-67
2021/06/15 03:01:48;;;;;;;9.20;3.80;;;;;;;;;;10532923;28;20191;-65
2021/06/15 03:06:51;;;;;;;7.93;3.90;;;;;;;;;;10523788;28;20232;-68
2021/06/15 03:11:58;;;;;;;8.00;3.90;;;;;;;;;;10527323;28;20210;-66
2021/06/15 03:17:05;;;;;;;8.97;3.87;;;;;;;;;;10525057;28;20229;-66
2021/06/15 03:22:11;;;;;;;7.57;4.10;;;;;;;;;;10524184;28;20200;-66
2021/06/15 03:27:16;;;;;;;8.60;4.33;;;;;;;;;;10519852;28;20244;-67
2021/06/15 03:32:21;;;;;;;8.77;4.07;;;;;;;;;;10526779;28;20271;-66
2021/06/15 03:37:25;;;;;;;9.23;4.10;;;;;;;;;;10543297;28;20219;-66
2021/06/15 03:42:30;;;;;;;7.90;4.07;;;;;;;;;;10535796;28;20253;-64
2021/06/15 03:47:35;;;;;;;10.00;4.53;;;;;;;;;;10534654;28;20295;-66
2021/06/15 03:52:38;;;;;;;8.33;4.07;;;;;;;;;;10535371;28;20230;-65
2021/06/15 03:57:43;;;;;;;10.07;4.13;;;;;;;;;;10526423;28;20207;-66
2021/06/15 04:02:48;;;;;;;8.07;4.03;;;;;;;;;;10531093;28;20192;-65
2021/06/15 04:07:51;;;;;;;9.20;4.10;;;;;;;;;;10528444;28;20215;-66
2021/06/15 04:12:55;;;;;;;11.30;4.20;;;;;;;;;;10534577;28;20207;-65
2021/06/15 04:18:21;;;;;;;10.33;4.60;;;;;;;;;;10534683;28;20383;-67
2021/06/15 04:23:45;;;;;;;8.20;4.00;;;;;;;;;;10532016;28;20500;-67
2021/06/15 04:28:48;;;;;;;9.93;4.57;;;;;;;;;;10530176;28;20269;-66
2021/06/15 04:33:52;;;;;;;9.90;4.50;;;;;;;;;;10532719;28;20240;-66
2021/06/15 04:38:56;;;;;;;8.20;4.40;;;;;;;;;;10521104;28;20240;-66
2021/06/15 04:44:02;;;;;;;9.67;4.17;;;;;;;;;;10529120;28;20188;-68
2021/06/15 04:49:09;;;;;;;11.70;4.37;;;;;;;;;;10536008;28;20276;-67
2021/06/15 04:54:13;;;;;;;9.77;4.37;;;;;;;;;;10528142;28;20228;-67
2021/06/15 04:59:16;;;;;;;11.37;4.57;;;;;;;;;;10543272;28;20243;-65
2021/06/15 05:04:20;;;;;;;9.80;4.83;;;;;;;;;;10545217;28;20195;-69
2021/06/15 05:09:25;;;;;;;9.80;4.43;;;;;;;;;;10542581;28;20275;-64
2021/06/15 05:14:28;;;;;;;9.33;4.63;;;;;;;;;;10545258;28;20795;-63
2021/06/15 05:19:32;;;;;;;9.83;4.70;;;;;;;;;;10542904;28;20292;-65
2021/06/15 05:24:49;;;;;;;8.63;4.60;;;;;;;;;;10549486;28;20198;-65
2021/06/15 05:29:52;;;;;;;10.93;4.87;;;;;;;;;;10545654;28;20307;-67
2021/06/15 05:35:02;;;;;;;11.33;4.37;;;;;;;;;;10548280;28;20770;-65
2021/06/15 05:40:05;;;;;;;8.77;4.40;;;;;;;;;;10544791;28;20212;-65
2021/06/15 05:45:09;;;;;;;10.30;4.57;;;;;;;;;;10524798;28;20191;-66
2021/06/15 05:50:14;;;;;;;9.43;4.60;;;;;;;;;;10529273;28;20583;-67
2021/06/15 05:55:18;;;;;;;9.87;4.37;;;;;;;;;;10520276;28;20761;-67
2021/06/15 06:00:21;;;;;;;9.80;4.27;;;;;;;;;;10528106;28;20621;-67
2021/06/15 06:10:46;;;;;;;9.40;4.50;;;;;;;;;;10527793;28;20772;-68
2021/06/15 06:15:50;;;;;;;8.03;4.40;;;;;;;;;;10524119;28;20256;-67
2021/06/15 06:20:54;;;;;;;9.13;4.27;;;;;;;;;;10527800;28;20250;-67
2021/06/15 06:25:56;;;;;;;7.90;3.90;;;;;;;;;;10527752;28;20721;-67
2021/06/15 06:30:59;;;;;;;10.23;4.23;;;;;;;;;;10523098;28;20202;-67
2021/06/15 06:36:04;;;;;;;8.20;3.50;;;;;;;;;;10542178;28;20208;-67
2021/06/15 06:41:06;;;;;;;7.77;3.40;;;;;;;;;;10524726;28;20224;-68
2021/06/15 06:46:09;;;;;;;10.03;3.60;;;;;;;;;;10526989;28;20218;-67
2021/06/15 06:51:13;;;;;;;7.73;3.40;;;;;;;;;;10527134;28;20248;-67
2021/06/15 06:56:15;;;;;;;10.50;3.53;;;;;;;;;;10523356;28;20499;-67
2021/06/15 07:01:18;;;;;;;8.37;4.03;;;;;;;;;;10521049;28;20200;-67
2021/06/15 07:06:22;;;;;;;8.27;3.20;;;;;;;;;;10532503;28;20215;-68
2021/06/15 07:11:24;;;;;;;9.07;3.20;;;;;;;;;;10521964;28;20311;-67
2021/06/15 07:16:27;;;;;;;9.07;3.10;;;;;;;;;;10520933;28;20242;-67
2021/06/15 07:21:31;;;;;;;6.80;2.93;;;;;;;;;;10523089;28;20271;-67
2021/06/15 07:26:33;;;;;;;8.83;3.10;;;;;;;;;;10523741;28;20373;-69
2021/06/15 07:31:36;;;;;;;6.03;2.83;;;;;;;;;;10524903;28;20275;-67
2021/06/15 07:36:40;;;;;;;7.93;2.93;;;;;;;;;;10520587;28;20207;-68
2021/06/15 07:41:43;;;;;;;5.97;2.83;;;;;;;;;;10534322;28;20192;-68
2021/06/15 07:46:45;;;;;;;6.40;2.90;;;;;;;;;;10532595;28;20646;-68
2021/06/15 07:51:50;;;;;;;7.50;2.80;;;;;;;;;;10538108;28;20242;-68
2021/06/15 07:57:09;;;;;;;7.82;3.00;;;;;;;;;;10522332;28;20222;-68
2021/06/15 08:02:11;;;;;;;7.70;3.20;;;;;;;;;;10538891;28;20195;-69
2021/06/15 08:07:15;;;;;;;7.68;3.03;;;;;;;;;;10530737;28;20211;-69
2021/06/15 08:12:20;;;;;;;5.28;2.70;;;;;;;;;;10536302;28;20194;-69
2021/06/15 08:17:23;;;;;;;7.22;2.75;;;;;;;;;;10529865;28;20247;-68
2021/06/15 08:22:27;;;;;;;7.00;2.83;;;;;;;;;;10521969;28;20203;-67
2021/06/15 08:27:31;;;;;;;6.80;2.97;;;;;;;;;;10532358;28;20210;-68
2021/06/15 08:32:34;;;;;;;8.57;4.40;;;;;;;;;;10533213;28;20849;-67
2021/06/15 08:37:40;;;;;;;6.18;2.60;;;;;;;;;;10534001;28;20311;-68
2021/06/15 08:42:43;;;;;;;6.63;2.90;;;;;;;;;;10532218;28;20203;-68
2021/06/15 08:47:47;;;;;;;5.00;2.55;;;;;;;;;;10531491;28;20219;-67
2021/06/15 08:52:51;;;;;;;5.70;2.35;;;;;;;;;;10530009;28;20202;-67
2021/06/15 08:57:57;;;;;;;9.30;3.13;;;;;;;;;;10523166;28;20352;-67
2021/06/15 09:03:00;;;;;;;6.85;2.70;;;;;;;;;;10533366;28;20200;-68
2021/06/15 09:08:05;;;;;;;5.93;2.70;;;;;;;;;;10529012;28;20598;-69
2021/06/15 09:13:28;;;;;;;4.57;2.63;;;;;;;;;;10527154;28;20381;-67
2021/06/15 09:18:31;;;;;;;5.22;2.53;;;;;;;;;;10520051;28;20247;-66
2021/06/15 09:23:35;;;;;;;5.35;3.25;;;;;;;;;;10529350;28;20248;-67
2021/06/15 09:28:50;;;;;;;4.95;2.47;;;;;;;;;;10528645;28;20328;-66
2021/06/15 09:33:52;;;;;;;4.32;2.70;;;;;;;;;;10526400;28;20635;-66
2021/06/15 09:39:00;;;;;;;5.50;2.85;;;;;;;;;;10520779;28;20233;-66
2021/06/15 09:44:12;;;;;;;4.25;2.60;;;;;;;;;;10526509;28;20209;-66
2021/06/15 09:49:26;;;;;;;4.70;2.78;;;;;;;;;;10527546;28;20229;-68
2021/06/15 09:54:39;;;;;;;5.90;2.95;;;;;;;;;;10522333;28;20274;-67
2021/06/15 09:59:56;;;;;;;7.38;3.42;;;;;;;;;;10527886;28;20460;-68
2021/06/15 10:05:02;;;;;;;5.43;2.90;;;;;;;;;;10523960;28;20852;-68
2021/06/15 10:10:07;;;;;;;5.40;3.15;;;;;;;;;;10524622;28;20444;-66
2021/06/15 10:15:10;;;;;;;7.00;3.35;;;;;;;;;;10522396;28;20642;-67
2021/06/15 10:20:14;;;;;;;5.22;2.95;;;;;;;;;;10523237;28;20214;-67
2021/06/15 10:25:19;;;;;;;4.85;2.80;;;;;;;;;;10529515;28;21415;-67
2021/06/15 10:30:28;;;;;;;4.68;2.88;;;;;;;;;;10520858;28;20322;-67
2021/06/15 10:35:33;;;;;;;4.88;2.88;;;;;;;;;;10513798;28;20223;-67
2021/06/15 10:40:57;;;;;;;5.25;3.15;;;;;;;;;;10521342;28;20546;-68
2021/06/15 10:46:23;;;;;;;5.88;2.97;;;;;;;;;;10510530;28;20259;-68
2021/06/15 10:51:28;;;;;;;5.75;3.17;;;;;;;;;;10515234;28;20209;-68
2021/06/15 10:56:33;;;;;;;6.90;3.88;;;;;;;;;;10519368;28;20211;-68
2021/06/15 11:01:38;;;;;;;4.80;2.83;;;;;;;;;;10536835;28;20183;-69
2021/06/15 11:06:42;;;;;;;3.90;2.60;;;;;;;;;;10525718;28;20207;-68
2021/06/15 11:11:46;;;;;;;4.47;2.90;;;;;;;;;;10522082;28;20610;-68
2021/06/15 11:16:51;;;;;;;5.22;2.75;;;;;;;;;;10524529;28;20755;-68
2021/06/15 11:21:54;;;;;;;4.72;2.30;;;;;;;;;;10514993;28;20225;-67
2021/06/15 11:26:58;;;;;;;3.55;2.30;;;;;;;;;;10523009;28;20278;-67
2021/06/15 11:32:21;;;;;;;3.88;2.42;;;;;;;;;;10524034;28;20211;-67
2021/06/15 11:37:24;;;;;;;2.47;2.25;;;;;;;;;;10519775;28;20558;-69
2021/06/15 11:42:28;;;;;;;3.85;2.30;;;;;;;;;;10517862;28;20187;-69
2021/06/15 11:47:35;;;;;;;4.38;2.17;;;;;;;;;;10527507;28;20268;-67
2021/06/15 11:52:39;;;;;;;4.63;1.90;;;;;;;;;;10531031;28;20279;-68
2021/06/15 11:57:42;;;;;;;3.10;1.92;;;;;;;;;;10525515;28;20222;-68
2021/06/15 12:02:46;;;;;;;4.97;2.40;;;;;;;;;;10531095;28;20283;-69
2021/06/15 12:07:52;;;;;;;6.93;2.60;;;;;;;;;;10532441;28;20262;-68
2021/06/15 12:12:55;;;;;;;5.35;2.30;;;;;;;;;;10534808;28;20578;-69
2021/06/15 12:17:59;;;;;;;5.28;2.28;;;;;;;;;;10518778;28;20649;-69
2021/06/15 12:23:19;;;;;;;4.45;2.30;;;;;;;;;;10531804;28;20781;-68
2021/06/15 12:28:23;;;;;;;3.13;2.20;;;;;;;;;;10535674;28;20298;-69
2021/06/15 12:33:27;;;;;;;2.80;2.00;;;;;;;;;;10537143;28;20282;-69
2021/06/15 12:38:30;;;;;;;4.28;2.15;;;;;;;;;;10524854;28;20223;-68
2021/06/15 12:43:33;;;;;;;3.83;2.28;;;;;;;;;;10531015;28;20739;-68
2021/06/15 12:48:43;;;;;;;3.55;2.20;;;;;;;;;;10532236;28;20236;-68
2021/06/15 12:53:46;;;;;;;3.92;2.30;;;;;;;;;;10526736;28;20214;-68
2021/06/15 12:58:50;;;;;;;3.90;2.50;;;;;;;;;;10526075;28;20327;-69
2021/06/15 13:03:54;;;;;;;4.25;2.30;;;;;;;;;;10533292;28;20191;-69
2021/06/15 13:08:57;;;;;;;4.80;2.30;;;;;;;;;;10533500;28;20240;-67
2021/06/15 13:14:01;;;;;;;4.03;2.17;;;;;;;;;;10528388;28;20212;-68
2021/06/15 13:19:06;;;;;;;4.05;2.40;;;;;;;;;;10520770;28;20219;-69
2021/06/15 13:24:10;;;;;;;5.57;2.50;;;;;;;;;;10522739;28;20196;-67
2021/06/15 13:29:13;;;;;;;4.70;2.30;;;;;;;;;;10531130;28;21035;-67
2021/06/15 13:34:16;;;;;;;4.75;2.55;;;;;;;;;;10525891;28;20194;-67
2021/06/15 13:39:20;;;;;;;5.95;2.35;;;;;;;;;;10541328;27;20426;-68
2021/06/15 13:44:32;;;;;;;5.32;2.35;;;;;;;;;;10530579;28;20212;-69
2021/06/15 13:49:36;;;;;;;8.07;2.50;;;;;;;;;;10542399;28;20548;-68
2021/06/15 13:54:39;;;;;;;6.32;2.40;;;;;;;;;;10523416;28;20188;-69
2021/06/15 13:59:42;;;;;;;5.50;2.70;;;;;;;;;;10516734;28;20210;-68
2021/06/15 14:04:46;;;;;;;5.32;2.20;;;;;;;;;;10529394;28;20681;-69
2021/06/15 14:09:48;;;;;;;4.78;2.10;;;;;;;;;;10517759;28;20606;-69
2021/06/15 14:14:51;;;;;;;6.00;2.42;;;;;;;;;;10513612;28;20602;-68
2021/06/15 14:19:54;;;;;;;6.60;2.45;;;;;;;;;;10522911;28;20216;-69
2021/06/15 14:24:57;;;;;;;3.95;2.25;;;;;;;;;;10516590;28;20210;-69
2021/06/15 14:30:00;;;;;;;4.40;2.25;;;;;;;;;;10521474;28;20219;-68
2021/06/15 14:35:05;;;;;;;6.40;2.60;;;;;;;;;;10529851;28;20288;-68
2021/06/15 14:40:10;;;;;;;5.10;2.30;;;;;;;;;;10519134;28;20219;-68
2021/06/15 14:45:16;;;;;;;5.25;2.25;;;;;;;;;;10529221;28;20225;-68
2021/06/15 14:50:20;;;;;;;4.82;2.25;;;;;;;;;;10525900;28;20238;-68
2021/06/15 14:55:22;;;;;;;4.97;2.60;;;;;;;;;;10515650;28;20224;-68
2021/06/15 15:00:25;;;;;;;6.38;2.30;;;;;;;;;;10521286;28;20208;-67
2021/06/15 15:05:29;;;;;;;5.72;2.50;;;;;;;;;;10525071;28;20230;-69
2021/06/15 15:10:32;;;;;;;6.68;2.50;;;;;;;;;;10522844;28;20816;-69
2021/06/15 15:15:35;;;;;;;5.35;2.40;;;;;;;;;;10525079;28;20696;-69
2021/06/15 15:20:39;;;;;;;3.67;2.05;;;;;;;;;;10537536;28;20211;-68
2021/06/15 15:25:42;;;;;;;4.60;2.38;;;;;;;;;;10546522;28;20200;-69
2021/06/15 15:30:45;;;;;;;8.88;3.72;;;;;;;;;;10549417;28;20590;-67
2021/06/15 15:35:49;;;;;;;4.40;2.17;;;;;;;;;;10545750;28;20202;-68
2021/06/15 15:40:51;;;;;;;6.93;2.22;;;;;;;;;;10571440;27;20288;-67
2021/06/15 15:45:54;;;;;;;4.18;1.92;;;;;;;;;;10537743;28;20222;-66
2021/06/15 15:50:58;;;;;;;5.97;2.47;;;;;;;;;;10535285;28;20691;-69
2021/06/15 15:56:02;;;;;;;5.13;2.50;;;;;;;;;;10530326;28;20231;-67
2021/06/15 16:01:05;;;;;;;3.50;2.30;;;;;;;;;;10536633;28;20596;-68
2021/06/15 16:06:09;;;;;;;6.88;2.78;;;;;;;;;;10522934;28;22316;-67
2021/06/15 16:11:12;;;;;;;6.95;3.30;;;;;;;;;;10533448;28;20673;-67
2021/06/15 16:16:16;;;;;;;7.03;2.53;;;;;;;;;;10532812;28;20223;-68
2021/06/15 16:21:21;;;;;;;7.25;3.55;;;;;;;;;;10528667;28;20222;-67
2021/06/15 16:26:23;;;;;;;10.75;6.65;;;;;;;;;;10526697;28;20220;-69
2021/06/15 16:31:26;;;;;;;4.40;2.08;;;;;;;;;;10526645;28;20196;-69
2021/06/15 16:36:30;;;;;;;5.30;2.60;;;;;;;;;;10535044;28;20223;-69
2021/06/15 16:41:37;;;;;;;3.65;2.17;;;;;;;;;;10530511;28;20288;-68
2021/06/15 16:46:40;;;;;;;4.30;2.10;;;;;;;;;;10529612;28;20247;-66
2021/06/15 16:51:44;;;;;;;11.05;7.25;;;;;;;;;;10530792;28;20253;-68
2021/06/15 16:56:46;;;;;;;4.63;2.50;;;;;;;;;;10522914;28;20235;-68
2021/06/15 17:01:49;;;;;;;5.18;2.08;;;;;;;;;;10528744;28;20235;-67
2021/06/15 17:06:53;;;;;;;7.10;3.40;;;;;;;;;;10528217;28;20251;-66
2021/06/15 17:11:56;;;;;;;4.85;2.10;;;;;;;;;;10526510;28;20230;-66
2021/06/15 17:16:58;;;;;;;5.88;1.92;;;;;;;;;;10511507;28;20223;-67
2021/06/15 17:22:02;;;;;;;7.28;3.33;;;;;;;;;;10529609;28;20199;-68
2021/06/15 17:27:05;;;;;;;5.43;2.88;;;;;;;;;;10527629;28;20300;-67
2021/06/15 17:32:08;;;;;;;4.25;2.13;;;;;;;;;;10528990;28;20292;-66
2021/06/15 17:37:12;;;;;;;5.40;2.63;;;;;;;;;;10527706;28;20223;-66
2021/06/15 17:42:14;;;;;;;7.82;4.03;;;;;;;;;;10523534;28;20643;-68
2021/06/15 17:47:17;;;;;;;7.55;4.35;;;;;;;;;;10526478;28;20223;-68
2021/06/15 17:52:21;;;;;;;5.50;2.30;;;;;;;;;;10528563;28;20714;-68
2021/06/15 17:57:27;;;;;;;4.03;2.25;;;;;;;;;;10524772;28;20378;-67
2021/06/15 18:02:29;;;;;;;6.68;2.58;;;;;;;;;;10525252;28;20184;-67
2021/06/15 18:07:40;;;;;;;6.18;2.60;;;;;;;;;;10528107;28;21088;-69
2021/06/15 18:12:43;;;;;;;6.43;3.08;;;;;;;;;;10525963;28;20216;-67
2021/06/15 18:17:46;;;;;;;6.03;2.55;;;;;;;;;;10524145;28;20304;-68
2021/06/15 18:22:50;;;;;;;6.03;2.30;;;;;;;;;;10527738;28;20195;-66
2021/06/15 18:27:53;;;;;;;7.13;3.47;;;;;;;;;;10519582;28;20552;-67
2021/06/15 18:32:56;;;;;;;7.63;3.88;;;;;;;;;;10521796;28;20200;-68
2021/06/15 18:38:00;;;;;;;5.40;2.63;;;;;;;;;;10516975;28;20242;-68
2021/06/15 18:43:03;;;;;;;8.23;2.83;;;;;;;;;;10528767;28;20579;-67
2021/06/15 18:48:06;;;;;;;8.25;3.05;;;;;;;;;;10524498;28;20241;-67
2021/06/15 18:53:10;;;;;;;6.63;3.08;;;;;;;;;;10524685;28;20238;-67
2021/06/15 18:58:13;;;;;;;7.57;3.40;;;;;;;;;;10527376;28;20323;-65
2021/06/15 19:03:16;;;;;;;6.93;2.92;;;;;;;;;;10522052;28;20192;-69
2021/06/15 19:08:20;;;;;;;9.73;5.57;;;;;;;;;;10513381;28;20232;-67
2021/06/15 19:13:24;;;;;;;9.63;6.07;;;;;;;;;;10520093;28;20219;-68
2021/06/15 19:18:27;;;;;;;10.23;5.07;;;;;;;;;;10525139;28;20215;-68
2021/06/15 19:23:30;;;;;;;9.10;5.67;;;;;;;;;;10526168;28;20265;-66
2021/06/15 19:28:33;;;;;;;8.90;3.70;;;;;;;;;;10523250;28;20253;-67
2021/06/15 19:33:36;;;;;;;9.53;4.07;;;;;;;;;;10526668;28;20219;-67
2021/06/15 19:38:40;;;;;;;8.93;4.33;;;;;;;;;;10522119;28;20212;-68
2021/06/15 19:43:43;;;;;;;7.33;3.47;;;;;;;;;;10526611;28;20206;-66
2021/06/15 19:48:46;;;;;;;9.43;4.90;;;;;;;;;;10520168;28;20217;-68
2021/06/15 19:53:50;;;;;;;9.13;4.80;;;;;;;;;;10520223;28;20686;-68
2021/06/15 19:58:53;;;;;;;11.20;5.90;;;;;;;;;;10522956;28;20215;-67
2021/06/15 20:03:55;;;;;;;11.13;7.13;;;;;;;;;;10522375;28;20666;-67
2021/06/15 20:08:59;;;;;;;11.33;6.40;;;;;;;;;;10516581;28;20208;-67
2021/06/15 20:14:02;;;;;;;10.00;5.30;;;;;;;;;;10528501;28;20222;-66
2021/06/15 20:19:04;;;;;;;13.87;7.43;;;;;;;;;;10531146;28;20208;-66
2021/06/15 20:24:08;;;;;;;9.97;5.80;;;;;;;;;;10530881;28;20184;-69
2021/06/15 20:29:23;;;;;;;14.00;7.43;;;;;;;;;;10531395;28;20226;-69
2021/06/15 20:34:26;;;;;;;13.90;6.07;;;;;;;;;;10532702;28;20667;-69
2021/06/15 20:39:30;;;;;;;10.03;5.97;;;;;;;;;;10529605;28;20311;-69
2021/06/15 20:44:33;;;;;;;8.90;4.80;;;;;;;;;;10528927;28;20614;-69
2021/06/15 20:49:36;;;;;;;10.77;5.10;;;;;;;;;;10528673;28;20264;-69
2021/06/15 20:54:40;;;;;;;11.40;5.50;;;;;;;;;;10526638;28;20295;-69
2021/06/15 20:59:43;;;;;;;10.67;5.27;;;;;;;;;;10531171;28;20226;-68
2021/06/15 21:04:45;;;;;;;11.10;5.90;;;;;;;;;;10528063;28;20279;-68
2021/06/15 21:09:49;;;;;;;11.20;5.93;;;;;;;;;;10528064;28;20211;-68
2021/06/15 21:14:52;;;;;;;10.97;6.00;;;;;;;;;;10527675;28;20223;-68
2021/06/15 21:19:54;;;;;;;12.10;5.73;;;;;;;;;;10518786;28;20824;-67
2021/06/15 21:24:58;;;;;;;10.17;4.87;;;;;;;;;;10520206;28;20195;-67
2021/06/15 21:30:01;;;;;;;8.93;4.60;;;;;;;;;;10531435;28;20229;-68
2021/06/15 21:35:03;;;;;;;9.77;5.50;;;;;;;;;;10523266;28;20204;-67
2021/06/15 21:40:08;;;;;;;13.47;5.87;;;;;;;;;;10527701;28;20226;-67
2021/06/15 21:45:14;;;;;;;9.37;4.97;;;;;;;;;;10530704;28;20188;-67
2021/06/15 21:50:17;;;;;;;10.93;5.63;;;;;;;;;;10528960;28;20326;-69
2021/06/15 21:55:21;;;;;;;12.43;7.47;;;;;;;;;;10528354;28;20274;-68
2021/06/15 22:00:29;;;;;;;10.50;5.53;;;;;;;;;;10528885;28;20272;-66
2021/06/15 22:05:32;;;;;;;10.67;5.50;;;;;;;;;;10531825;28;20208;-67
2021/06/15 22:10:36;;;;;;;12.10;6.10;;;;;;;;;;10535973;28;20295;-68
2021/06/15 22:15:38;;;;;;;12.60;5.80;;;;;;;;;;10542739;28;20213;-68
2021/06/15 22:20:41;;;;;;;12.07;5.83;;;;;;;;;;10539884;28;20272;-67
2021/06/15 22:25:45;;;;;;;8.77;5.30;;;;;;;;;;10545465;28;20279;-68
2021/06/15 22:30:47;;;;;;;9.53;4.73;;;;;;;;;;10526945;28;20203;-69
2021/06/15 22:35:50;;;;;;;12.47;5.33;;;;;;;;;;10535853;28;20279;-69
2021/06/15 22:40:54;;;;;;;8.87;5.10;;;;;;;;;;10529153;28;20188;-66
2021/06/15 22:45:56;;;;;;;12.97;5.70;;;;;;;;;;10527771;28;20227;-67
2021/06/15 22:50:59;;;;;;;12.00;6.00;;;;;;;;;;10527785;28;20201;-67
2021/06/15 22:56:03;;;;;;;10.17;6.30;;;;;;;;;;10521490;28;20215;-67
2021/06/15 23:01:05;;;;;;;11.93;5.97;;;;;;;;;;10526197;28;20211;-67
2021/06/15 23:06:08;;;;;;;12.97;6.07;;;;;;;;;;10523861;28;20553;-68
2021/06/15 23:11:12;;;;;;;12.57;6.20;;;;;;;;;;10524810;28;20759;-67
2021/06/15 23:16:15;;;;;;;11.80;5.90;;;;;;;;;;10526132;28;20239;-67
2021/06/15 23:21:18;;;;;;;13.03;6.00;;;;;;;;;;10526519;28;20219;-67
2021/06/15 23:26:22;;;;;;;10.50;5.90;;;;;;;;;;10539407;28;20223;-67
2021/06/15 23:31:24;;;;;;;10.40;5.70;;;;;;;;;;10527382;28;20216;-68
2021/06/15 23:36:27;;;;;;;13.00;6.03;;;;;;;;;;10524126;28;20298;-68
2021/06/15 23:41:31;;;;;;;10.77;5.90;;;;;;;;;;10527450;28;20270;-68
2021/06/15 23:46:33;;;;;;;12.70;6.23;;;;;;;;;;10521362;28;20668;-68
2021/06/15 23:51:36;;;;;;;12.07;6.60;;;;;;;;;;10529582;28;20211;-68
2021/06/15 23:56:41;;;;;;;14.37;5.83;;;;;;;;;;10530717;28;20315;-69
